Terminal Aerodrome Forecast
Issued by NWS

Home | Current Version | Previous Version | Text Only | Print | Product List | Glossary On
Versions: 1 2 3 4 5 6 7 8 9 10 11 12 13 14 15
000
FTUS46 KPDT 311730
TAFDLS
TAF
KDLS 311730Z 3118/0118 33007KT P6SM SKC
     FM312100 31013G20KT P6SM OVC250
     FM010500 29010KT P6SM BKN250
     FM010600 28009G15KT P6SM SCT250
     FM010700 30007KT P6SM BKN250=

USA.gov is the U.S. government's official web portal to all federal, state and local government web resources and services.